sensor_id;sensor_type;location;lat;lon;timestamp;P1;durP1;ratioP1;P2;durP2;ratioP2
9260;SDS011;4667;42.726;23.252;2023-08-21T00:00:39;9.45;;;6.70;;
9260;SDS011;4667;42.726;23.252;2023-08-21T00:03:06;9.30;;;6.53;;
9260;SDS011;4667;42.726;23.252;2023-08-21T00:05:33;7.15;;;5.90;;
9260;SDS011;4667;42.726;23.252;2023-08-21T00:08:00;7.65;;;6.00;;
9260;SDS011;4667;42.726;23.252;2023-08-21T00:10:29;8.18;;;6.03;;
9260;SDS011;4667;42.726;23.252;2023-08-21T00:12:56;7.32;;;6.05;;
9260;SDS011;4667;42.726;23.252;2023-08-21T00:15:23;6.95;;;6.25;;
9260;SDS011;4667;42.726;23.252;2023-08-21T00:17:51;8.73;;;6.07;;
9260;SDS011;4667;42.726;23.252;2023-08-21T00:20:18;7.93;;;6.05;;
9260;SDS011;4667;42.726;23.252;2023-08-21T00:22:44;6.80;;;5.88;;
9260;SDS011;4667;42.726;23.252;2023-08-21T00:25:11;6.85;;;6.18;;
9260;SDS011;4667;42.726;23.252;2023-08-21T00:27:39;8.38;;;5.97;;
9260;SDS011;4667;42.726;23.252;2023-08-21T00:30:06;8.18;;;6.55;;
9260;SDS011;4667;42.726;23.252;2023-08-21T00:32:34;6.78;;;6.03;;
9260;SDS011;4667;42.726;23.252;2023-08-21T00:35:01;6.85;;;5.75;;
9260;SDS011;4667;42.726;23.252;2023-08-21T00:37:27;6.13;;;5.53;;
9260;SDS011;4667;42.726;23.252;2023-08-21T00:39:54;9.02;;;6.60;;
9260;SDS011;4667;42.726;23.252;2023-08-21T00:42:21;8.13;;;6.13;;
9260;SDS011;4667;42.726;23.252;2023-08-21T00:44:49;8.55;;;6.40;;
9260;SDS011;4667;42.726;23.252;2023-08-21T00:47:15;9.27;;;6.70;;
9260;SDS011;4667;42.726;23.252;2023-08-21T00:49:42;6.78;;;6.07;;
9260;SDS011;4667;42.726;23.252;2023-08-21T00:52:09;7.32;;;6.43;;
9260;SDS011;4667;42.726;23.252;2023-08-21T00:54:38;7.70;;;6.38;;
9260;SDS011;4667;42.726;23.252;2023-08-21T00:57:05;9.43;;;5.80;;
9260;SDS011;4667;42.726;23.252;2023-08-21T00:59:32;8.05;;;6.65;;
9260;SDS011;4667;42.726;23.252;2023-08-21T01:02:01;8.27;;;6.43;;
9260;SDS011;4667;42.726;23.252;2023-08-21T01:04:27;7.80;;;6.03;;
9260;SDS011;4667;42.726;23.252;2023-08-21T01:06:54;9.93;;;6.68;;
9260;SDS011;4667;42.726;23.252;2023-08-21T01:09:24;7.93;;;6.40;;
9260;SDS011;4667;42.726;23.252;2023-08-21T01:11:58;8.73;;;6.55;;
9260;SDS011;4667;42.726;23.252;2023-08-21T01:14:33;7.72;;;6.55;;
9260;SDS011;4667;42.726;23.252;2023-08-21T01:17:11;7.30;;;6.30;;
9260;SDS011;4667;42.726;23.252;2023-08-21T01:19:40;7.43;;;6.50;;
9260;SDS011;4667;42.726;23.252;2023-08-21T01:22:09;9.00;;;5.93;;
9260;SDS011;4667;42.726;23.252;2023-08-21T01:24:38;7.85;;;6.32;;
9260;SDS011;4667;42.726;23.252;2023-08-21T01:27:04;10.85;;;6.47;;
9260;SDS011;4667;42.726;23.252;2023-08-21T01:29:31;8.05;;;6.00;;
9260;SDS011;4667;42.726;23.252;2023-08-21T01:32:02;7.22;;;6.47;;
9260;SDS011;4667;42.726;23.252;2023-08-21T01:34:34;7.20;;;6.47;;
9260;SDS011;4667;42.726;23.252;2023-08-21T01:37:03;7.40;;;6.63;;
9260;SDS011;4667;42.726;23.252;2023-08-21T01:39:31;8.77;;;6.78;;
9260;SDS011;4667;42.726;23.252;2023-08-21T01:42:00;8.93;;;6.70;;
9260;SDS011;4667;42.726;23.252;2023-08-21T01:44:27;8.90;;;6.85;;
9260;SDS011;4667;42.726;23.252;2023-08-21T01:46:53;7.30;;;6.60;;
9260;SDS011;4667;42.726;23.252;2023-08-21T01:49:20;10.02;;;7.13;;
9260;SDS011;4667;42.726;23.252;2023-08-21T01:51:47;10.02;;;7.65;;
9260;SDS011;4667;42.726;23.252;2023-08-21T01:54:13;11.88;;;7.63;;
9260;SDS011;4667;42.726;23.252;2023-08-21T01:56:40;10.77;;;8.07;;
9260;SDS011;4667;42.726;23.252;2023-08-21T01:59:08;10.10;;;7.68;;
9260;SDS011;4667;42.726;23.252;2023-08-21T02:01:35;11.70;;;8.32;;
9260;SDS011;4667;42.726;23.252;2023-08-21T02:04:02;9.43;;;7.82;;
9260;SDS011;4667;42.726;23.252;2023-08-21T02:06:28;9.98;;;8.52;;
9260;SDS011;4667;42.726;23.252;2023-08-21T02:08:55;12.38;;;8.57;;
9260;SDS011;4667;42.726;23.252;2023-08-21T02:11:22;12.80;;;8.45;;
9260;SDS011;4667;42.726;23.252;2023-08-21T02:13:48;10.20;;;8.70;;
9260;SDS011;4667;42.726;23.252;2023-08-21T02:16:16;10.50;;;8.43;;
9260;SDS011;4667;42.726;23.252;2023-08-21T02:18:43;10.60;;;9.45;;
9260;SDS011;4667;42.726;23.252;2023-08-21T02:21:10;11.90;;;8.20;;
9260;SDS011;4667;42.726;23.252;2023-08-21T02:23:37;12.02;;;8.48;;
9260;SDS011;4667;42.726;23.252;2023-08-21T02:26:03;9.35;;;8.32;;
9260;SDS011;4667;42.726;23.252;2023-08-21T02:28:30;10.35;;;8.60;;
9260;SDS011;4667;42.726;23.252;2023-08-21T02:30:57;9.50;;;8.48;;
9260;SDS011;4667;42.726;23.252;2023-08-21T02:33:25;13.90;;;9.38;;
9260;SDS011;4667;42.726;23.252;2023-08-21T02:35:52;11.85;;;8.60;;
9260;SDS011;4667;42.726;23.252;2023-08-21T02:38:18;12.48;;;8.60;;
9260;SDS011;4667;42.726;23.252;2023-08-21T02:40:45;10.32;;;9.02;;
9260;SDS011;4667;42.726;23.252;2023-08-21T02:43:12;12.63;;;9.45;;
9260;SDS011;4667;42.726;23.252;2023-08-21T02:45:39;12.98;;;9.45;;
9260;SDS011;4667;42.726;23.252;2023-08-21T02:48:06;10.45;;;9.00;;
9260;SDS011;4667;42.726;23.252;2023-08-21T02:50:34;11.20;;;8.25;;
9260;SDS011;4667;42.726;23.252;2023-08-21T02:53:00;9.55;;;8.52;;
9260;SDS011;4667;42.726;23.252;2023-08-21T02:55:27;10.93;;;8.73;;
9260;SDS011;4667;42.726;23.252;2023-08-21T02:57:54;10.55;;;8.30;;
9260;SDS011;4667;42.726;23.252;2023-08-21T03:00:21;10.60;;;8.88;;
9260;SDS011;4667;42.726;23.252;2023-08-21T03:02:48;9.00;;;8.10;;
9260;SDS011;4667;42.726;23.252;2023-08-21T03:05:15;8.30;;;7.50;;
9260;SDS011;4667;42.726;23.252;2023-08-21T03:07:43;9.43;;;8.43;;
9260;SDS011;4667;42.726;23.252;2023-08-21T03:10:10;10.88;;;7.15;;
9260;SDS011;4667;42.726;23.252;2023-08-21T03:12:36;8.75;;;7.55;;
9260;SDS011;4667;42.726;23.252;2023-08-21T03:15:03;13.90;;;7.88;;
9260;SDS011;4667;42.726;23.252;2023-08-21T03:17:31;9.00;;;7.30;;
9260;SDS011;4667;42.726;23.252;2023-08-21T03:20:00;9.32;;;7.60;;
9260;SDS011;4667;42.726;23.252;2023-08-21T03:22:29;9.27;;;7.68;;
9260;SDS011;4667;42.726;23.252;2023-08-21T03:24:58;10.02;;;7.40;;
9260;SDS011;4667;42.726;23.252;2023-08-21T03:27:25;8.55;;;7.60;;
9260;SDS011;4667;42.726;23.252;2023-08-21T03:29:51;11.32;;;7.90;;
9260;SDS011;4667;42.726;23.252;2023-08-21T03:32:18;11.18;;;7.60;;
9260;SDS011;4667;42.726;23.252;2023-08-21T03:34:45;9.90;;;7.38;;
9260;SDS011;4667;42.726;23.252;2023-08-21T03:37:11;8.93;;;7.45;;
9260;SDS011;4667;42.726;23.252;2023-08-21T03:39:38;8.57;;;7.50;;
9260;SDS011;4667;42.726;23.252;2023-08-21T03:42:06;8.23;;;7.43;;
9260;SDS011;4667;42.726;23.252;2023-08-21T03:44:33;8.90;;;7.57;;
9260;SDS011;4667;42.726;23.252;2023-08-21T03:47:00;13.43;;;7.88;;
9260;SDS011;4667;42.726;23.252;2023-08-21T03:49:27;9.45;;;7.45;;
9260;SDS011;4667;42.726;23.252;2023-08-21T03:51:53;10.95;;;8.50;;
9260;SDS011;4667;42.726;23.252;2023-08-21T03:54:20;10.85;;;8.60;;
9260;SDS011;4667;42.726;23.252;2023-08-21T03:56:47;8.68;;;7.93;;
9260;SDS011;4667;42.726;23.252;2023-08-21T03:59:15;8.88;;;7.97;;
9260;SDS011;4667;42.726;23.252;2023-08-21T04:01:42;10.15;;;8.52;;
9260;SDS011;4667;42.726;23.252;2023-08-21T04:04:09;12.70;;;7.35;;
9260;SDS011;4667;42.726;23.252;2023-08-21T04:06:36;8.80;;;7.93;;
9260;SDS011;4667;42.726;23.252;2023-08-21T04:09:03;11.57;;;7.70;;
9260;SDS011;4667;42.726;23.252;2023-08-21T04:11:31;9.50;;;7.85;;
9260;SDS011;4667;42.726;23.252;2023-08-21T04:13:58;11.57;;;8.25;;
9260;SDS011;4667;42.726;23.252;2023-08-21T04:16:27;10.27;;;7.80;;
9260;SDS011;4667;42.726;23.252;2023-08-21T04:18:54;9.50;;;7.55;;
9260;SDS011;4667;42.726;23.252;2023-08-21T04:21:21;10.45;;;7.45;;
9260;SDS011;4667;42.726;23.252;2023-08-21T04:23:48;10.00;;;7.72;;
9260;SDS011;4667;42.726;23.252;2023-08-21T04:26:14;9.55;;;8.10;;
9260;SDS011;4667;42.726;23.252;2023-08-21T04:28:41;12.20;;;8.13;;
9260;SDS011;4667;42.726;23.252;2023-08-21T04:31:08;10.90;;;7.32;;
9260;SDS011;4667;42.726;23.252;2023-08-21T04:33:36;10.55;;;7.68;;
9260;SDS011;4667;42.726;23.252;2023-08-21T04:36:03;13.18;;;7.70;;
9260;SDS011;4667;42.726;23.252;2023-08-21T04:38:30;13.63;;;8.10;;
9260;SDS011;4667;42.726;23.252;2023-08-21T04:41:00;10.55;;;7.38;;
9260;SDS011;4667;42.726;23.252;2023-08-21T04:43:32;8.77;;;7.85;;
9260;SDS011;4667;42.726;23.252;2023-08-21T04:45:59;13.63;;;8.30;;
9260;SDS011;4667;42.726;23.252;2023-08-21T04:48:25;12.18;;;8.02;;
9260;SDS011;4667;42.726;23.252;2023-08-21T04:50:53;11.25;;;8.52;;
9260;SDS011;4667;42.726;23.252;2023-08-21T04:53:20;10.63;;;7.78;;
9260;SDS011;4667;42.726;23.252;2023-08-21T04:55:47;13.93;;;7.97;;
9260;SDS011;4667;42.726;23.252;2023-08-21T04:58:14;10.65;;;7.68;;
9260;SDS011;4667;42.726;23.252;2023-08-21T05:00:42;10.93;;;7.40;;
9260;SDS011;4667;42.726;23.252;2023-08-21T05:03:10;12.60;;;8.10;;
9260;SDS011;4667;42.726;23.252;2023-08-21T05:05:37;11.77;;;8.07;;
9260;SDS011;4667;42.726;23.252;2023-08-21T05:08:05;11.77;;;7.93;;
9260;SDS011;4667;42.726;23.252;2023-08-21T05:10:32;14.02;;;7.75;;
9260;SDS011;4667;42.726;23.252;2023-08-21T05:12:59;13.13;;;8.18;;
9260;SDS011;4667;42.726;23.252;2023-08-21T05:15:25;18.80;;;7.57;;
9260;SDS011;4667;42.726;23.252;2023-08-21T05:17:52;11.25;;;8.10;;
9260;SDS011;4667;42.726;23.252;2023-08-21T05:20:19;11.68;;;7.65;;
9260;SDS011;4667;42.726;23.252;2023-08-21T05:22:45;10.63;;;7.38;;
9260;SDS011;4667;42.726;23.252;2023-08-21T05:25:14;8.75;;;6.85;;
9260;SDS011;4667;42.726;23.252;2023-08-21T05:27:41;11.32;;;8.02;;
9260;SDS011;4667;42.726;23.252;2023-08-21T05:30:08;13.48;;;7.60;;
9260;SDS011;4667;42.726;23.252;2023-08-21T05:32:37;12.85;;;8.15;;
9260;SDS011;4667;42.726;23.252;2023-08-21T05:35:04;9.95;;;7.72;;
9260;SDS011;4667;42.726;23.252;2023-08-21T05:37:33;12.05;;;7.78;;
9260;SDS011;4667;42.726;23.252;2023-08-21T05:40:00;11.05;;;8.95;;
9260;SDS011;4667;42.726;23.252;2023-08-21T05:42:30;10.80;;;7.95;;
9260;SDS011;4667;42.726;23.252;2023-08-21T05:44:56;13.82;;;7.78;;
9260;SDS011;4667;42.726;23.252;2023-08-21T05:47:23;11.02;;;8.13;;
9260;SDS011;4667;42.726;23.252;2023-08-21T05:49:51;14.05;;;8.60;;
9260;SDS011;4667;42.726;23.252;2023-08-21T05:52:19;13.30;;;8.50;;
9260;SDS011;4667;42.726;23.252;2023-08-21T05:54:45;12.75;;;8.75;;
9260;SDS011;4667;42.726;23.252;2023-08-21T05:57:12;11.40;;;7.55;;
9260;SDS011;4667;42.726;23.252;2023-08-21T05:59:44;10.57;;;8.20;;
9260;SDS011;4667;42.726;23.252;2023-08-21T06:02:12;14.18;;;8.15;;
9260;SDS011;4667;42.726;23.252;2023-08-21T06:04:40;10.45;;;7.30;;
9260;SDS011;4667;42.726;23.252;2023-08-21T06:07:07;12.52;;;7.75;;
9260;SDS011;4667;42.726;23.252;2023-08-21T06:09:34;12.35;;;7.63;;
9260;SDS011;4667;42.726;23.252;2023-08-21T06:12:01;11.23;;;7.22;;
9260;SDS011;4667;42.726;23.252;2023-08-21T06:14:28;10.80;;;7.43;;
9260;SDS011;4667;42.726;23.252;2023-08-21T06:16:57;10.52;;;7.82;;
9260;SDS011;4667;42.726;23.252;2023-08-21T06:19:25;12.15;;;7.80;;
9260;SDS011;4667;42.726;23.252;2023-08-21T06:21:51;7.95;;;6.68;;
9260;SDS011;4667;42.726;23.252;2023-08-21T06:24:18;13.77;;;8.38;;
9260;SDS011;4667;42.726;23.252;2023-08-21T06:26:45;15.48;;;8.52;;
9260;SDS011;4667;42.726;23.252;2023-08-21T06:29:12;12.68;;;7.85;;
9260;SDS011;4667;42.726;23.252;2023-08-21T06:31:38;14.07;;;8.35;;
9260;SDS011;4667;42.726;23.252;2023-08-21T06:34:06;11.45;;;8.50;;
9260;SDS011;4667;42.726;23.252;2023-08-21T06:36:33;9.98;;;7.75;;
9260;SDS011;4667;42.726;23.252;2023-08-21T06:39:00;11.80;;;7.80;;
9260;SDS011;4667;42.726;23.252;2023-08-21T06:41:28;12.25;;;8.18;;
9260;SDS011;4667;42.726;23.252;2023-08-21T06:43:55;11.40;;;7.00;;
9260;SDS011;4667;42.726;23.252;2023-08-21T06:46:23;10.52;;;6.63;;
9260;SDS011;4667;42.726;23.252;2023-08-21T06:48:50;8.35;;;6.63;;
9260;SDS011;4667;42.726;23.252;2023-08-21T06:51:18;11.70;;;7.93;;
9260;SDS011;4667;42.726;23.252;2023-08-21T06:53:45;9.30;;;5.95;;
9260;SDS011;4667;42.726;23.252;2023-08-21T06:56:11;8.05;;;6.40;;
9260;SDS011;4667;42.726;23.252;2023-08-21T06:58:38;8.43;;;5.85;;
9260;SDS011;4667;42.726;23.252;2023-08-21T07:01:05;10.70;;;6.45;;
9260;SDS011;4667;42.726;23.252;2023-08-21T07:03:32;7.90;;;6.10;;
9260;SDS011;4667;42.726;23.252;2023-08-21T07:05:59;8.93;;;5.93;;
9260;SDS011;4667;42.726;23.252;2023-08-21T07:08:27;8.90;;;5.57;;
9260;SDS011;4667;42.726;23.252;2023-08-21T07:10:54;9.13;;;6.00;;
9260;SDS011;4667;42.726;23.252;2023-08-21T07:13:21;7.65;;;5.70;;
9260;SDS011;4667;42.726;23.252;2023-08-21T07:15:48;7.32;;;5.88;;
9260;SDS011;4667;42.726;23.252;2023-08-21T07:18:18;8.65;;;6.20;;
9260;SDS011;4667;42.726;23.252;2023-08-21T07:20:45;12.38;;;6.07;;
9260;SDS011;4667;42.726;23.252;2023-08-21T07:23:12;11.65;;;6.57;;
9260;SDS011;4667;42.726;23.252;2023-08-21T07:25:40;9.63;;;7.13;;
9260;SDS011;4667;42.726;23.252;2023-08-21T07:31:47;11.32;;;6.57;;
9260;SDS011;4667;42.726;23.252;2023-08-21T07:34:14;13.65;;;6.28;;
9260;SDS011;4667;42.726;23.252;2023-08-21T07:36:41;14.77;;;6.18;;
9260;SDS011;4667;42.726;23.252;2023-08-21T07:39:07;9.82;;;6.20;;
9260;SDS011;4667;42.726;23.252;2023-08-21T07:41:35;7.38;;;6.55;;
9260;SDS011;4667;42.726;23.252;2023-08-21T07:44:02;8.27;;;5.65;;
9260;SDS011;4667;42.726;23.252;2023-08-21T07:46:29;6.28;;;5.57;;
9260;SDS011;4667;42.726;23.252;2023-08-21T07:48:56;7.07;;;5.57;;
9260;SDS011;4667;42.726;23.252;2023-08-21T07:51:22;13.30;;;6.18;;
9260;SDS011;4667;42.726;23.252;2023-08-21T07:53:49;6.80;;;5.78;;
9260;SDS011;4667;42.726;23.252;2023-08-21T07:56:16;9.52;;;5.57;;
9260;SDS011;4667;42.726;23.252;2023-08-21T07:58:44;11.68;;;6.22;;
9260;SDS011;4667;42.726;23.252;2023-08-21T08:01:10;10.93;;;6.55;;
9260;SDS011;4667;42.726;23.252;2023-08-21T08:03:37;7.80;;;5.90;;
9260;SDS011;4667;42.726;23.252;2023-08-21T08:06:04;10.07;;;5.53;;
9260;SDS011;4667;42.726;23.252;2023-08-21T08:11:00;8.88;;;6.60;;
9260;SDS011;4667;42.726;23.252;2023-08-21T08:13:28;8.23;;;5.78;;
9260;SDS011;4667;42.726;23.252;2023-08-21T08:15:56;9.80;;;6.10;;
9260;SDS011;4667;42.726;23.252;2023-08-21T08:18:23;12.13;;;6.20;;
9260;SDS011;4667;42.726;23.252;2023-08-21T08:20:50;9.18;;;6.07;;
9260;SDS011;4667;42.726;23.252;2023-08-21T08:23:18;12.25;;;6.22;;
9260;SDS011;4667;42.726;23.252;2023-08-21T08:25:45;8.82;;;6.55;;
9260;SDS011;4667;42.726;23.252;2023-08-21T08:31:06;10.45;;;5.82;;
9260;SDS011;4667;42.726;23.252;2023-08-21T08:33:33;8.55;;;5.82;;
9260;SDS011;4667;42.726;23.252;2023-08-21T08:36:00;9.63;;;5.90;;
9260;SDS011;4667;42.726;23.252;2023-08-21T08:38:27;10.00;;;7.30;;
9260;SDS011;4667;42.726;23.252;2023-08-21T08:40:53;8.38;;;6.05;;
9260;SDS011;4667;42.726;23.252;2023-08-21T08:43:21;5.50;;;5.00;;
9260;SDS011;4667;42.726;23.252;2023-08-21T08:45:51;7.15;;;5.88;;
9260;SDS011;4667;42.726;23.252;2023-08-21T08:48:22;6.68;;;4.85;;
9260;SDS011;4667;42.726;23.252;2023-08-21T08:50:49;10.40;;;5.68;;
9260;SDS011;4667;42.726;23.252;2023-08-21T08:53:17;5.78;;;5.28;;
9260;SDS011;4667;42.726;23.252;2023-08-21T08:55:44;9.10;;;5.28;;
9260;SDS011;4667;42.726;23.252;2023-08-21T08:58:11;7.43;;;5.53;;
9260;SDS011;4667;42.726;23.252;2023-08-21T09:00:38;10.00;;;9.00;;
9260;SDS011;4667;42.726;23.252;2023-08-21T09:03:05;11.73;;;6.03;;
9260;SDS011;4667;42.726;23.252;2023-08-21T09:05:33;9.20;;;5.97;;
9260;SDS011;4667;42.726;23.252;2023-08-21T09:08:08;8.65;;;6.38;;
9260;SDS011;4667;42.726;23.252;2023-08-21T09:10:36;5.57;;;5.03;;
9260;SDS011;4667;42.726;23.252;2023-08-21T09:13:08;5.97;;;5.38;;
9260;SDS011;4667;42.726;23.252;2023-08-21T09:15:35;13.57;;;8.85;;
9260;SDS011;4667;42.726;23.252;2023-08-21T09:18:03;8.60;;;5.57;;
9260;SDS011;4667;42.726;23.252;2023-08-21T09:20:35;6.43;;;5.15;;
9260;SDS011;4667;42.726;23.252;2023-08-21T09:23:02;6.72;;;5.10;;
9260;SDS011;4667;42.726;23.252;2023-08-21T09:25:33;11.80;;;6.40;;
9260;SDS011;4667;42.726;23.252;2023-08-21T09:28:03;6.57;;;5.80;;
9260;SDS011;4667;42.726;23.252;2023-08-21T09:30:45;9.57;;;5.70;;
9260;SDS011;4667;42.726;23.252;2023-08-21T09:33:14;15.80;;;7.43;;
9260;SDS011;4667;42.726;23.252;2023-08-21T09:35:45;22.85;;;8.15;;
9260;SDS011;4667;42.726;23.252;2023-08-21T09:38:12;7.68;;;5.38;;
9260;SDS011;4667;42.726;23.252;2023-08-21T09:40:39;7.38;;;5.10;;
9260;SDS011;4667;42.726;23.252;2023-08-21T09:43:08;6.25;;;5.15;;
9260;SDS011;4667;42.726;23.252;2023-08-21T09:45:36;6.13;;;5.15;;
9260;SDS011;4667;42.726;23.252;2023-08-21T09:48:03;6.47;;;4.97;;
9260;SDS011;4667;42.726;23.252;2023-08-21T09:50:30;6.03;;;4.97;;
9260;SDS011;4667;42.726;23.252;2023-08-21T09:52:59;9.95;;;5.13;;
9260;SDS011;4667;42.726;23.252;2023-08-21T09:55:27;8.38;;;4.97;;
9260;SDS011;4667;42.726;23.252;2023-08-21T09:57:56;7.47;;;5.10;;
9260;SDS011;4667;42.726;23.252;2023-08-21T10:00:26;7.03;;;4.57;;
9260;SDS011;4667;42.726;23.252;2023-08-21T10:02:59;5.60;;;4.80;;
9260;SDS011;4667;42.726;23.252;2023-08-21T10:05:28;7.55;;;5.43;;
9260;SDS011;4667;42.726;23.252;2023-08-21T10:07:55;8.90;;;7.47;;
9260;SDS011;4667;42.726;23.252;2023-08-21T10:10:24;6.05;;;4.90;;
9260;SDS011;4667;42.726;23.252;2023-08-21T10:12:51;6.68;;;4.93;;
9260;SDS011;4667;42.726;23.252;2023-08-21T10:15:18;7.93;;;4.85;;
9260;SDS011;4667;42.726;23.252;2023-08-21T10:17:45;5.20;;;4.70;;
9260;SDS011;4667;42.726;23.252;2023-08-21T10:20:12;7.80;;;4.93;;
9260;SDS011;4667;42.726;23.252;2023-08-21T10:22:39;8.73;;;4.95;;
9260;SDS011;4667;42.726;23.252;2023-08-21T10:25:15;6.47;;;4.72;;
9260;SDS011;4667;42.726;23.252;2023-08-21T10:27:46;8.77;;;4.95;;
9260;SDS011;4667;42.726;23.252;2023-08-21T10:30:19;7.38;;;4.85;;
9260;SDS011;4667;42.726;23.252;2023-08-21T10:32:47;6.38;;;5.20;;
9260;SDS011;4667;42.726;23.252;2023-08-21T10:35:15;7.22;;;5.07;;
9260;SDS011;4667;42.726;23.252;2023-08-21T10:38:04;7.28;;;4.68;;
9260;SDS011;4667;42.726;23.252;2023-08-21T10:40:32;11.10;;;5.00;;
9260;SDS011;4667;42.726;23.252;2023-08-21T10:43:00;5.88;;;4.45;;
9260;SDS011;4667;42.726;23.252;2023-08-21T10:45:28;7.55;;;4.95;;
9260;SDS011;4667;42.726;23.252;2023-08-21T10:47:56;6.18;;;4.80;;
9260;SDS011;4667;42.726;23.252;2023-08-21T10:50:23;6.93;;;4.57;;
9260;SDS011;4667;42.726;23.252;2023-08-21T10:52:51;5.50;;;4.70;;
9260;SDS011;4667;42.726;23.252;2023-08-21T10:55:18;8.25;;;4.68;;
9260;SDS011;4667;42.726;23.252;2023-08-21T10:57:46;6.38;;;4.55;;
9260;SDS011;4667;42.726;23.252;2023-08-21T11:00:15;7.82;;;5.43;;
9260;SDS011;4667;42.726;23.252;2023-08-21T11:02:43;9.30;;;7.30;;
9260;SDS011;4667;42.726;23.252;2023-08-21T11:05:11;8.68;;;4.80;;
9260;SDS011;4667;42.726;23.252;2023-08-21T11:07:39;6.57;;;4.30;;
9260;SDS011;4667;42.726;23.252;2023-08-21T11:10:09;6.75;;;4.90;;
9260;SDS011;4667;42.726;23.252;2023-08-21T11:12:38;8.57;;;5.28;;
9260;SDS011;4667;42.726;23.252;2023-08-21T11:15:15;9.70;;;5.43;;
9260;SDS011;4667;42.726;23.252;2023-08-21T11:17:42;5.22;;;4.10;;
9260;SDS011;4667;42.726;23.252;2023-08-21T11:20:09;6.72;;;5.13;;
9260;SDS011;4667;42.726;23.252;2023-08-21T11:22:36;8.10;;;4.82;;
9260;SDS011;4667;42.726;23.252;2023-08-21T11:25:03;10.48;;;5.10;;
9260;SDS011;4667;42.726;23.252;2023-08-21T11:27:31;9.68;;;5.13;;
9260;SDS011;4667;42.726;23.252;2023-08-21T11:29:57;5.43;;;4.22;;
9260;SDS011;4667;42.726;23.252;2023-08-21T11:32:28;11.70;;;6.38;;
9260;SDS011;4667;42.726;23.252;2023-08-21T11:34:55;7.72;;;5.18;;
9260;SDS011;4667;42.726;23.252;2023-08-21T11:37:23;5.75;;;4.57;;
9260;SDS011;4667;42.726;23.252;2023-08-21T11:39:51;6.97;;;5.30;;
9260;SDS011;4667;42.726;23.252;2023-08-21T11:42:19;6.30;;;4.68;;
9260;SDS011;4667;42.726;23.252;2023-08-21T11:44:49;5.65;;;4.90;;
9260;SDS011;4667;42.726;23.252;2023-08-21T11:47:17;6.22;;;4.95;;
9260;SDS011;4667;42.726;23.252;2023-08-21T11:49:46;5.07;;;4.35;;
9260;SDS011;4667;42.726;23.252;2023-08-21T11:52:17;6.60;;;4.85;;
9260;SDS011;4667;42.726;23.252;2023-08-21T11:54:47;6.78;;;4.80;;
9260;SDS011;4667;42.726;23.252;2023-08-21T11:57:14;8.30;;;4.70;;
9260;SDS011;4667;42.726;23.252;2023-08-21T11:59:41;6.18;;;4.50;;
9260;SDS011;4667;42.726;23.252;2023-08-21T12:02:09;5.60;;;5.10;;
9260;SDS011;4667;42.726;23.252;2023-08-21T12:04:36;8.48;;;5.20;;
9260;SDS011;4667;42.726;23.252;2023-08-21T12:07:05;6.05;;;4.32;;
9260;SDS011;4667;42.726;23.252;2023-08-21T12:09:32;6.65;;;5.15;;
9260;SDS011;4667;42.726;23.252;2023-08-21T12:11:58;6.68;;;4.78;;
9260;SDS011;4667;42.726;23.252;2023-08-21T12:14:27;6.32;;;4.95;;
9260;SDS011;4667;42.726;23.252;2023-08-21T12:16:54;5.80;;;4.40;;
9260;SDS011;4667;42.726;23.252;2023-08-21T12:19:21;8.85;;;4.43;;
9260;SDS011;4667;42.726;23.252;2023-08-21T12:21:49;6.05;;;4.32;;
9260;SDS011;4667;42.726;23.252;2023-08-21T12:24:18;6.88;;;4.45;;
9260;SDS011;4667;42.726;23.252;2023-08-21T12:26:44;5.90;;;4.57;;
9260;SDS011;4667;42.726;23.252;2023-08-21T12:29:11;5.20;;;4.65;;
9260;SDS011;4667;42.726;23.252;2023-08-21T12:31:38;5.88;;;4.72;;
9260;SDS011;4667;42.726;23.252;2023-08-21T12:34:04;9.23;;;4.95;;
9260;SDS011;4667;42.726;23.252;2023-08-21T12:36:33;10.55;;;4.40;;
9260;SDS011;4667;42.726;23.252;2023-08-21T12:39:00;5.40;;;4.90;;
9260;SDS011;4667;42.726;23.252;2023-08-21T12:41:29;6.30;;;4.55;;
9260;SDS011;4667;42.726;23.252;2023-08-21T12:43:56;8.88;;;4.70;;
9260;SDS011;4667;42.726;23.252;2023-08-21T12:46:22;7.30;;;4.63;;
9260;SDS011;4667;42.726;23.252;2023-08-21T12:48:51;8.82;;;4.63;;
9260;SDS011;4667;42.726;23.252;2023-08-21T12:51:18;5.63;;;4.22;;
9260;SDS011;4667;42.726;23.252;2023-08-21T12:53:44;5.88;;;4.75;;
9260;SDS011;4667;42.726;23.252;2023-08-21T12:56:11;9.45;;;4.60;;
9260;SDS011;4667;42.726;23.252;2023-08-21T12:58:39;9.30;;;4.70;;
9260;SDS011;4667;42.726;23.252;2023-08-21T13:01:06;7.20;;;4.55;;
9260;SDS011;4667;42.726;23.252;2023-08-21T13:03:33;4.80;;;4.22;;
9260;SDS011;4667;42.726;23.252;2023-08-21T13:05:59;5.97;;;4.50;;
9260;SDS011;4667;42.726;23.252;2023-08-21T13:08:26;4.45;;;4.03;;
9260;SDS011;4667;42.726;23.252;2023-08-21T13:10:53;7.03;;;4.32;;
9260;SDS011;4667;42.726;23.252;2023-08-21T13:13:19;8.00;;;4.53;;
9260;SDS011;4667;42.726;23.252;2023-08-21T13:15:48;5.32;;;4.18;;
9260;SDS011;4667;42.726;23.252;2023-08-21T13:18:15;8.00;;;4.25;;
9260;SDS011;4667;42.726;23.252;2023-08-21T13:20:42;7.28;;;4.60;;
9260;SDS011;4667;42.726;23.252;2023-08-21T13:23:09;5.75;;;4.20;;
9260;SDS011;4667;42.726;23.252;2023-08-21T13:25:35;5.97;;;4.68;;
9260;SDS011;4667;42.726;23.252;2023-08-21T13:28:02;7.43;;;4.80;;
9260;SDS011;4667;42.726;23.252;2023-08-21T13:30:30;9.95;;;4.75;;
9260;SDS011;4667;42.726;23.252;2023-08-21T13:32:58;6.95;;;4.47;;
9260;SDS011;4667;42.726;23.252;2023-08-21T13:35:25;7.57;;;4.18;;
9260;SDS011;4667;42.726;23.252;2023-08-21T13:37:51;4.38;;;3.97;;
9260;SDS011;4667;42.726;23.252;2023-08-21T13:40:18;5.93;;;4.60;;
9260;SDS011;4667;42.726;23.252;2023-08-21T13:42:46;5.57;;;4.38;;
9260;SDS011;4667;42.726;23.252;2023-08-21T13:45:14;4.50;;;4.10;;
9260;SDS011;4667;42.726;23.252;2023-08-21T13:47:43;6.10;;;4.45;;
9260;SDS011;4667;42.726;23.252;2023-08-21T13:50:12;5.38;;;4.68;;
9260;SDS011;4667;42.726;23.252;2023-08-21T13:52:40;5.82;;;4.63;;
9260;SDS011;4667;42.726;23.252;2023-08-21T13:55:08;7.65;;;4.28;;
9260;SDS011;4667;42.726;23.252;2023-08-21T13:57:36;6.03;;;4.35;;
9260;SDS011;4667;42.726;23.252;2023-08-21T14:00:04;6.03;;;4.57;;
9260;SDS011;4667;42.726;23.252;2023-08-21T14:02:32;9.43;;;4.80;;
9260;SDS011;4667;42.726;23.252;2023-08-21T14:04:59;7.35;;;4.60;;
9260;SDS011;4667;42.726;23.252;2023-08-21T14:07:27;7.43;;;4.50;;
9260;SDS011;4667;42.726;23.252;2023-08-21T14:09:54;10.40;;;4.88;;
9260;SDS011;4667;42.726;23.252;2023-08-21T14:12:21;7.57;;;4.57;;
9260;SDS011;4667;42.726;23.252;2023-08-21T14:14:48;8.60;;;4.57;;
9260;SDS011;4667;42.726;23.252;2023-08-21T14:17:15;6.00;;;4.85;;
9260;SDS011;4667;42.726;23.252;2023-08-21T14:19:41;7.55;;;4.60;;
9260;SDS011;4667;42.726;23.252;2023-08-21T14:22:08;7.72;;;4.25;;
9260;SDS011;4667;42.726;23.252;2023-08-21T14:24:36;6.55;;;4.97;;
9260;SDS011;4667;42.726;23.252;2023-08-21T14:27:03;7.15;;;4.93;;
9260;SDS011;4667;42.726;23.252;2023-08-21T14:29:30;8.15;;;4.95;;
9260;SDS011;4667;42.726;23.252;2023-08-21T14:31:57;6.55;;;5.53;;
9260;SDS011;4667;42.726;23.252;2023-08-21T14:34:25;6.07;;;5.47;;
9260;SDS011;4667;42.726;23.252;2023-08-21T14:36:52;6.13;;;4.82;;
9260;SDS011;4667;42.726;23.252;2023-08-21T14:39:19;6.35;;;5.07;;
9260;SDS011;4667;42.726;23.252;2023-08-21T14:41:52;7.90;;;4.22;;
9260;SDS011;4667;42.726;23.252;2023-08-21T14:44:21;8.05;;;5.18;;
9260;SDS011;4667;42.726;23.252;2023-08-21T14:46:48;8.75;;;5.18;;
9260;SDS011;4667;42.726;23.252;2023-08-21T14:49:15;9.15;;;4.72;;
9260;SDS011;4667;42.726;23.252;2023-08-21T14:51:42;7.35;;;4.65;;
9260;SDS011;4667;42.726;23.252;2023-08-21T14:54:08;9.77;;;5.15;;
9260;SDS011;4667;42.726;23.252;2023-08-21T14:56:35;6.45;;;5.38;;
9260;SDS011;4667;42.726;23.252;2023-08-21T14:59:03;9.88;;;5.70;;
9260;SDS011;4667;42.726;23.252;2023-08-21T15:01:30;9.70;;;4.80;;
9260;SDS011;4667;42.726;23.252;2023-08-21T15:03:57;7.45;;;5.07;;
9260;SDS011;4667;42.726;23.252;2023-08-21T15:06:24;6.40;;;4.82;;
9260;SDS011;4667;42.726;23.252;2023-08-21T15:08:51;10.00;;;5.00;;